CEB316 RPLL-RPUV
Flight info
| Callsign | CEB316 |
|---|---|
| Flight time | N/A |
| Altitude | 25000 |
| Route | HARBO1 HARBO DCT TIMON W15 RAGAY W15A NGA |
| Aircraft | A20N/M-SDE2E3FGHIRWXY/LB1 |
Departure
| Time | 2026-05-04 22:10 |
|---|---|
| Airport | Ninoy Aquino International Airport (RPLL) |
Arrival
| Time | N/A |
|---|---|
| Airport | Virac Airport (RPUV) |
| Time | Latitude | Longitude | Altitude | Speed | Heading |
|---|---|---|---|---|---|
| 2026-05-04 21:42 | 14.52363 | 121.00809 | 72 ft | 0 kts | 45° |
| 2026-05-04 22:00 | 14.52351 | 121.00797 | 65 ft | 4 kts | 45° |
| 2026-05-04 22:00 | 14.52332 | 121.00778 | 62 ft | 4 kts | 41° |
| 2026-05-04 22:01 | 14.52311 | 121.00761 | 62 ft | 4 kts | 31° |
| 2026-05-04 22:01 | 14.52288 | 121.00747 | 67 ft | 4 kts | 44° |
| 2026-05-04 22:01 | 14.52278 | 121.00743 | 65 ft | 2 kts | 134° |
| 2026-05-04 22:01 | 14.52293 | 121.00727 | 62 ft | 2 kts | 135° |
| 2026-05-04 22:02 | 14.52294 | 121.00725 | 62 ft | 0 kts | 135° |
| 2026-05-04 22:05 | 14.52292 | 121.00728 | 62 ft | 3 kts | 135° |
| 2026-05-04 22:05 | 14.52248 | 121.00773 | 66 ft | 12 kts | 135° |
| 2026-05-04 22:05 | 14.52183 | 121.00841 | 69 ft | 15 kts | 135° |
| 2026-05-04 22:05 | 14.52098 | 121.00928 | 69 ft | 18 kts | 135° |
| 2026-05-04 22:06 | 14.51999 | 121.01029 | 72 ft | 22 kts | 135° |
| 2026-05-04 22:06 | 14.51885 | 121.01147 | 69 ft | 24 kts | 134° |
| 2026-05-04 22:06 | 14.51760 | 121.01277 | 67 ft | 27 kts | 137° |
| 2026-05-04 22:06 | 14.51620 | 121.01417 | 67 ft | 29 kts | 133° |
| 2026-05-04 22:07 | 14.51498 | 121.01548 | 72 ft | 20 kts | 134° |
| 2026-05-04 22:07 | 14.51389 | 121.01658 | 70 ft | 23 kts | 134° |
| 2026-05-04 22:07 | 14.51269 | 121.01779 | 67 ft | 25 kts | 136° |
| 2026-05-04 22:07 | 14.51154 | 121.01901 | 69 ft | 21 kts | 134° |
| 2026-05-04 22:08 | 14.51075 | 121.01981 | 69 ft | 13 kts | 139° |
| 2026-05-04 22:08 | 14.51041 | 121.01980 | 72 ft | 5 kts | 208° |
| 2026-05-04 22:08 | 14.51004 | 121.01922 | 70 ft | 13 kts | 240° |
| 2026-05-04 22:08 | 14.50987 | 121.01829 | 66 ft | 14 kts | 303° |
| 2026-05-04 22:09 | 14.51053 | 121.01758 | 70 ft | 3 kts | 315° |
| 2026-05-04 22:09 | 14.51054 | 121.01758 | 70 ft | 0 kts | 314° |
| 2026-05-04 22:09 | 14.51098 | 121.01711 | 66 ft | 39 kts | 314° |
| 2026-05-04 22:10 | 14.51485 | 121.01310 | 70 ft | 117 kts | 315° |
| 2026-05-04 22:10 | 14.52181 | 121.00601 | 347 ft | 149 kts | 316° |
| 2026-05-04 22:10 | 14.52938 | 120.99823 | 981 ft | 152 kts | 315° |
| 2026-05-04 22:10 | 14.53710 | 120.99022 | 1610 ft | 176 kts | 316° |
| 2026-05-04 22:11 | 14.54701 | 120.98000 | 1981 ft | 225 kts | 316° |
| 2026-05-04 22:11 | 14.55886 | 120.96775 | 2579 ft | 254 kts | 316° |
| 2026-05-04 22:11 | 14.57167 | 120.95448 | 3458 ft | 267 kts | 316° |
| 2026-05-04 22:11 | 14.58504 | 120.94063 | 4376 ft | 278 kts | 317° |
| 2026-05-04 22:12 | 14.59876 | 120.92643 | 5299 ft | 286 kts | 317° |
| 2026-05-04 22:12 | 14.61287 | 120.91184 | 6358 ft | 289 kts | 317° |
| 2026-05-04 22:12 | 14.62841 | 120.89865 | 7341 ft | 291 kts | 331° |
| 2026-05-04 22:12 | 14.64721 | 120.89117 | 8252 ft | 293 kts | 353° |
| 2026-05-04 22:13 | 14.66748 | 120.89160 | 9157 ft | 294 kts | 16° |
| 2026-05-04 22:13 | 14.68608 | 120.90005 | 10032 ft | 293 kts | 39° |
| 2026-05-04 22:13 | 14.70051 | 120.91528 | 10564 ft | 306 kts | 60° |
| 2026-05-04 22:13 | 14.70814 | 120.93630 | 10945 ft | 322 kts | 84° |
| 2026-05-04 22:14 | 14.70818 | 120.95174 | 11320 ft | 328 kts | 99° |
| 2026-05-04 22:14 | 14.69587 | 120.98023 | 12253 ft | 337 kts | 130° |
| 2026-05-04 22:14 | 14.67764 | 120.99572 | 12974 ft | 345 kts | 146° |
| 2026-05-04 22:14 | 14.66373 | 121.00451 | 13454 ft | 350 kts | 149° |
| 2026-05-04 22:15 | 14.63547 | 121.02132 | 14368 ft | 357 kts | 149° |
| 2026-05-04 22:15 | 14.61387 | 121.03419 | 15110 ft | 360 kts | 149° |
| 2026-05-04 22:15 | 14.59214 | 121.04727 | 15871 ft | 363 kts | 149° |
| 2026-05-04 22:15 | 14.57026 | 121.06054 | 16636 ft | 366 kts | 149° |
| 2026-05-04 22:16 | 14.54819 | 121.07397 | 17381 ft | 370 kts | 149° |
| 2026-05-04 22:16 | 14.52622 | 121.08803 | 18101 ft | 374 kts | 143° |
| 2026-05-04 22:16 | 14.50802 | 121.10680 | 18684 ft | 378 kts | 129° |
| 2026-05-04 22:16 | 14.49325 | 121.12859 | 19222 ft | 382 kts | 122° |
| 2026-05-04 22:17 | 14.48492 | 121.14322 | 19563 ft | 385 kts | 120° |
| 2026-05-04 22:17 | 14.47220 | 121.16770 | 20113 ft | 389 kts | 118° |
| 2026-05-04 22:17 | 14.45978 | 121.19261 | 20683 ft | 393 kts | 118° |
| 2026-05-04 22:17 | 14.44712 | 121.21778 | 21264 ft | 397 kts | 118° |
| 2026-05-04 22:18 | 14.43409 | 121.24304 | 21854 ft | 401 kts | 119° |
| 2026-05-04 22:18 | 14.42068 | 121.26841 | 22446 ft | 405 kts | 120° |
| 2026-05-04 22:18 | 14.40713 | 121.29356 | 23035 ft | 408 kts | 120° |
| 2026-05-04 22:18 | 14.39315 | 121.31922 | 23621 ft | 412 kts | 120° |
| 2026-05-04 22:19 | 14.37899 | 121.34507 | 24121 ft | 416 kts | 120° |
| 2026-05-04 22:19 | 14.36468 | 121.37114 | 24602 ft | 419 kts | 120° |
| 2026-05-04 22:19 | 14.35029 | 121.39735 | 24862 ft | 419 kts | 120° |
| 2026-05-04 22:19 | 14.33593 | 121.42355 | 24931 ft | 420 kts | 120° |
| 2026-05-04 22:20 | 14.32155 | 121.44979 | 24933 ft | 421 kts | 120° |
| 2026-05-04 22:20 | 14.30717 | 121.47604 | 24933 ft | 422 kts | 120° |
| 2026-05-04 22:20 | 14.29273 | 121.50241 | 24932 ft | 422 kts | 120° |
| 2026-05-04 22:20 | 14.28317 | 121.51987 | 24933 ft | 422 kts | 120° |
| 2026-05-04 22:21 | 14.26875 | 121.54617 | 24935 ft | 421 kts | 121° |
| 2026-05-04 22:21 | 14.24974 | 121.58087 | 24936 ft | 419 kts | 120° |
| 2026-05-04 22:21 | 14.24023 | 121.59824 | 24936 ft | 419 kts | 120° |
| 2026-05-04 22:21 | 14.22584 | 121.62449 | 24936 ft | 418 kts | 121° |
| 2026-05-04 22:22 | 14.21152 | 121.65059 | 24934 ft | 418 kts | 121° |
| 2026-05-04 22:22 | 14.19720 | 121.67669 | 24933 ft | 418 kts | 120° |
| 2026-05-04 22:22 | 14.18285 | 121.70281 | 24932 ft | 419 kts | 120° |
| 2026-05-04 22:22 | 14.16871 | 121.72855 | 24932 ft | 418 kts | 121° |
| 2026-05-04 22:23 | 14.15439 | 121.75460 | 24931 ft | 418 kts | 121° |
| 2026-05-04 22:23 | 14.14002 | 121.78070 | 24931 ft | 419 kts | 121° |
| 2026-05-04 22:23 | 14.12574 | 121.80666 | 24932 ft | 419 kts | 120° |
| 2026-05-04 22:23 | 14.11131 | 121.83288 | 24928 ft | 419 kts | 120° |
| 2026-05-04 22:24 | 14.09695 | 121.85897 | 24928 ft | 420 kts | 120° |
| 2026-05-04 22:24 | 14.08249 | 121.88527 | 24928 ft | 420 kts | 120° |
| 2026-05-04 22:24 | 14.06810 | 121.91141 | 24928 ft | 420 kts | 120° |
| 2026-05-04 22:24 | 14.05393 | 121.93727 | 24927 ft | 420 kts | 120° |
| 2026-05-04 22:25 | 14.04005 | 121.96375 | 24928 ft | 420 kts | 118° |
| 2026-05-04 22:25 | 14.02657 | 121.99048 | 24924 ft | 420 kts | 118° |
| 2026-05-04 22:25 | 14.01328 | 122.01730 | 24925 ft | 420 kts | 118° |
| 2026-05-04 22:25 | 14.00007 | 122.04410 | 24925 ft | 420 kts | 118° |
| 2026-05-04 22:26 | 13.98682 | 122.07093 | 24925 ft | 421 kts | 118° |
| 2026-05-04 22:26 | 13.97351 | 122.09776 | 24924 ft | 421 kts | 118° |
| 2026-05-04 22:26 | 13.96016 | 122.12457 | 24925 ft | 421 kts | 118° |
| 2026-05-04 22:26 | 13.94678 | 122.15138 | 24924 ft | 421 kts | 118° |
| 2026-05-04 22:27 | 13.93356 | 122.17781 | 24924 ft | 421 kts | 118° |
| 2026-05-04 22:27 | 13.92019 | 122.20452 | 24925 ft | 420 kts | 118° |
| 2026-05-04 22:27 | 13.90682 | 122.23120 | 24925 ft | 420 kts | 118° |
| 2026-05-04 22:27 | 13.89339 | 122.25801 | 24925 ft | 420 kts | 118° |
| 2026-05-04 22:28 | 13.87998 | 122.28475 | 24925 ft | 420 kts | 118° |
| 2026-05-04 22:28 | 13.86660 | 122.31143 | 24925 ft | 420 kts | 118° |
| 2026-05-04 22:28 | 13.85320 | 122.33814 | 24925 ft | 420 kts | 118° |
| 2026-05-04 22:28 | 13.83978 | 122.36489 | 24925 ft | 420 kts | 118° |
| 2026-05-04 22:29 | 13.82640 | 122.39155 | 24925 ft | 420 kts | 118° |
| 2026-05-04 22:29 | 13.81302 | 122.41823 | 24925 ft | 420 kts | 118° |
| 2026-05-04 22:29 | 13.79980 | 122.44454 | 24925 ft | 420 kts | 118° |
| 2026-05-04 22:29 | 13.78640 | 122.47123 | 24925 ft | 420 kts | 118° |
| 2026-05-04 22:30 | 13.77301 | 122.49789 | 24924 ft | 420 kts | 118° |
| 2026-05-04 22:30 | 13.75961 | 122.52455 | 24924 ft | 420 kts | 118° |
| 2026-05-04 22:30 | 13.74620 | 122.55122 | 24925 ft | 420 kts | 118° |
| 2026-05-04 22:30 | 13.73372 | 122.57834 | 24922 ft | 420 kts | 110° |
| 2026-05-04 22:31 | 13.72803 | 122.59737 | 24927 ft | 420 kts | 107° |
| 2026-05-04 22:31 | 13.71804 | 122.63624 | 24925 ft | 421 kts | 104° |
| 2026-05-04 22:31 | 13.71156 | 122.66516 | 24925 ft | 421 kts | 103° |
| 2026-05-04 22:31 | 13.70533 | 122.69467 | 24925 ft | 421 kts | 103° |
| 2026-05-04 22:32 | 13.70122 | 122.71453 | 24925 ft | 421 kts | 103° |
| 2026-05-04 22:32 | 13.69522 | 122.74355 | 24925 ft | 421 kts | 103° |